Time;durP1;ratioP1;P1;durP2;ratioP2;P2;SDS_P1;SDS_P2;PMS_P1;PMS_P2;Temp;Humidity;BMP_temperature;BMP_pressure;BME280_temperature;BME280_humidity;BME280_pressure;Samples;Min_cycle;Max_cycle;Signal;HPM_P1;HPM_P2
2022/02/25 00:02:19;;;;;;;10.75;3.30;;;;;;;5.29;73.04;100132.75;5033856;28;20493;-64
2022/02/25 00:05:04;;;;;;;6.60;3.63;;;;;;;5.30;73.22;100142.19;5034189;28;20068;-64
2022/02/25 00:07:48;;;;;;;6.68;3.78;;;;;;;5.33;73.39;100144.03;5034820;28;20049;-65
2022/02/25 00:10:35;;;;;;;7.57;3.60;;;;;;;5.32;72.83;100143.13;5034887;28;20127;-65
2022/02/25 00:13:19;;;;;;;10.40;3.92;;;;;;;5.31;72.95;100151.66;5034723;28;20504;-64
2022/02/25 00:16:04;;;;;;;11.35;4.63;;;;;;;5.29;73.09;100144.72;5034163;28;20052;-65
2022/02/25 00:18:48;;;;;;;8.95;3.42;;;;;;;5.26;72.49;100148.06;5033552;28;20048;-64
2022/02/25 00:21:32;;;;;;;5.30;3.28;;;;;;;5.29;73.23;100152.44;5034745;28;20084;-64
2022/02/25 00:24:18;;;;;;;13.50;3.72;;;;;;;5.29;73.19;100155.00;5033454;28;20125;-64
2022/02/25 00:27:03;;;;;;;7.93;3.60;;;;;;;5.31;73.27;100158.50;5034335;28;20092;-65
2022/02/25 00:29:47;;;;;;;;;;;;;;;5.27;72.67;100160.09;5035038;28;20056;-64
2022/02/25 00:32:31;;;;;;;8.98;3.08;;;;;;;5.26;72.72;100162.56;5033914;28;19943;-65
2022/02/25 00:35:15;;;;;;;;;;;;;;;5.21;72.60;100167.53;5034820;28;20516;-64
2022/02/25 00:37:59;;;;;;;5.47;3.85;;;;;;;5.21;73.09;100170.09;5034107;28;19919;-65
2022/02/25 00:40:44;;;;;;;10.38;4.00;;;;;;;5.18;72.64;100180.25;5034586;28;20052;-64
2022/02/25 00:43:30;;;;;;;9.93;3.80;;;;;;;5.16;73.12;100177.66;5033818;28;20091;-65
2022/02/25 00:46:14;;;;;;;8.43;4.55;;;;;;;5.16;73.14;100177.66;5034042;28;20610;-65
2022/02/25 00:48:58;;;;;;;8.25;4.65;;;;;;;5.15;72.81;100188.75;5034190;28;20048;-65
2022/02/25 00:51:42;;;;;;;9.32;3.88;;;;;;;5.13;73.03;100182.66;5033097;28;20115;-65
2022/02/25 00:54:26;;;;;;;12.88;4.97;;;;;;;5.13;73.13;100184.38;5033051;28;20091;-65
2022/02/25 00:57:10;;;;;;;14.27;5.03;;;;;;;5.11;73.09;100184.28;5033906;28;20503;-65
2022/02/25 00:59:54;;;;;;;11.13;4.32;;;;;;;5.14;73.17;100188.66;5033993;28;20049;-64
2022/02/25 01:02:38;;;;;;;9.65;3.85;;;;;;;5.14;72.81;100193.78;5033862;28;20087;-64
2022/02/25 01:05:25;;;;;;;19.00;5.65;;;;;;;5.12;72.86;100192.88;5033129;28;20049;-64
2022/02/25 01:08:10;;;;;;;11.13;5.03;;;;;;;5.14;72.52;100192.13;5033592;28;20056;-64
2022/02/25 01:10:53;;;;;;;;;;;;;;;5.15;72.47;100199.00;5033061;28;20091;-64
2022/02/25 01:13:37;;;;;;;9.82;3.95;;;;;;;5.12;72.66;100196.31;5033909;28;19919;-65
2022/02/25 01:16:21;;;;;;;11.77;5.13;;;;;;;5.10;73.07;100204.78;5033771;28;20079;-65
2022/02/25 01:19:05;;;;;;;8.05;3.65;;;;;;;5.10;72.83;100205.66;5033299;28;20137;-64
2022/02/25 01:21:49;;;;;;;10.02;3.47;;;;;;;5.09;72.77;100211.59;5033795;28;20072;-65
2022/02/25 01:24:33;;;;;;;5.45;3.35;;;;;;;5.09;72.95;100201.31;5034044;28;20107;-64
2022/02/25 01:27:17;;;;;;;14.25;4.30;;;;;;;5.09;72.79;100213.31;5033282;28;20056;-65
2022/02/25 01:30:04;;;;;;;9.80;4.22;;;;;;;5.11;72.45;100217.69;5033725;28;20040;-64
2022/02/25 01:32:48;;;;;;;11.38;4.15;;;;;;;5.07;72.96;100213.22;5032441;28;20072;-65
2022/02/25 01:35:35;;;;;;;18.13;4.43;;;;;;;5.06;72.57;100216.59;5033381;28;20048;-64
2022/02/25 01:38:19;;;;;;;13.88;4.93;;;;;;;5.01;72.50;100219.00;5033033;28;20052;-65
2022/02/25 01:41:04;;;;;;;14.40;4.78;;;;;;;5.02;72.90;100220.75;5033148;28;20095;-64
2022/02/25 01:43:48;;;;;;;11.82;3.40;;;;;;;5.04;72.70;100228.53;5032806;28;20072;-65
2022/02/25 01:46:33;;;;;;;10.60;3.53;;;;;;;5.00;72.78;100224.06;5033160;28;20197;-65
2022/02/25 01:49:18;;;;;;;10.05;3.90;;;;;;;5.01;71.99;100225.84;5033286;28;20440;-65
2022/02/25 01:52:05;;;;;;;11.10;3.88;;;;;;;5.00;72.24;100224.06;5032822;28;20052;-64
2022/02/25 01:54:49;;;;;;;8.68;4.20;;;;;;;5.02;72.47;100222.47;5032706;28;20123;-65
2022/02/25 01:57:33;;;;;;;13.40;3.50;;;;;;;5.03;72.73;100226.78;5032093;28;20049;-65
2022/02/25 02:00:17;;;;;;;16.17;4.72;;;;;;;5.00;72.62;100226.66;5032259;28;20055;-65
2022/02/25 02:03:02;;;;;;;9.10;4.60;;;;;;;5.01;72.91;100225.84;5032627;28;20125;-65
2022/02/25 02:05:47;;;;;;;8.20;4.10;;;;;;;4.98;72.28;100230.84;5033418;28;20051;-65
2022/02/25 02:08:31;;;;;;;;;;;;;;;4.99;72.76;100230.88;5033869;28;20104;-64
2022/02/25 02:11:27;;;;;;;11.32;3.70;;;;;;;4.95;72.39;100229.03;5033064;28;19967;-65
2022/02/25 02:14:16;;;;;;;14.15;4.13;;;;;;;4.93;72.26;100229.75;5031894;28;20052;-64
2022/02/25 02:17:01;;;;;;;16.42;5.45;;;;;;;4.89;71.95;100228.75;5032594;28;20044;-65
2022/02/25 02:19:45;;;;;;;12.23;4.00;;;;;;;4.90;71.89;100229.66;5032821;28;20054;-64
2022/02/25 02:22:29;;;;;;;6.50;3.22;;;;;;;4.85;72.37;100220.06;5036655;28;20095;-64
2022/02/25 02:25:13;;;;;;;12.18;4.18;;;;;;;4.86;72.21;100234.66;5035751;28;20125;-64
2022/02/25 02:31:01;;;;;;;10.23;3.33;;;;;;;4.80;72.23;100242.09;5036995;28;19928;-64
2022/02/25 02:33:45;;;;;;;7.78;3.53;;;;;;;4.80;72.22;100242.09;5036157;28;20463;-65
2022/02/25 02:36:29;;;;;;;;;;;;;;;4.82;72.66;100245.59;5036445;28;20140;-64
2022/02/25 02:39:14;;;;;;;13.27;3.92;;;;;;;4.79;72.00;100236.91;5036205;28;19920;-65
2022/02/25 02:41:58;;;;;;;;;;;;;;;4.80;72.39;100234.38;5036348;28;20512;-64
2022/02/25 02:44:47;;;;;;;11.98;3.83;;;;;;;4.77;72.53;100239.38;5036735;28;19932;-64
2022/02/25 02:47:31;;;;;;;18.52;4.68;;;;;;;4.80;72.06;100236.94;5035696;28;20051;-65
2022/02/25 02:50:15;;;;;;;14.25;3.78;;;;;;;4.79;71.97;100240.34;5036461;28;20053;-64
2022/02/25 02:52:59;;;;;;;11.07;3.88;;;;;;;4.75;72.49;100235.88;5035573;28;20056;-64
2022/02/25 02:55:44;;;;;;;10.75;3.97;;;;;;;4.75;71.80;100241.00;5034913;28;20116;-65
2022/02/25 02:58:28;;;;;;;6.50;3.22;;;;;;;4.72;72.52;100243.47;5036119;28;20076;-64
2022/02/25 03:01:12;;;;;;;10.57;3.85;;;;;;;4.72;72.27;100228.94;5035889;28;20091;-64
2022/02/25 03:03:58;;;;;;;12.23;4.15;;;;;;;4.71;71.72;100234.00;5035705;28;20566;-64
2022/02/25 03:06:45;;;;;;;10.52;3.20;;;;;;;4.70;72.10;100227.97;5034557;28;20103;-64
2022/02/25 03:09:29;;;;;;;12.23;5.03;;;;;;;4.71;71.84;100234.88;5035089;28;20049;-65
2022/02/25 03:12:13;;;;;;;13.10;4.65;;;;;;;4.72;72.20;100231.50;5035700;28;20067;-64
2022/02/25 03:14:57;;;;;;;15.50;3.90;;;;;;;4.71;72.08;100242.56;5035393;28;20052;-64
2022/02/25 03:17:44;;;;;;;14.23;3.70;;;;;;;4.72;71.92;100236.63;5035362;28;20049;-65
2022/02/25 03:20:28;;;;;;;12.85;4.82;;;;;;;4.75;72.32;100247.84;5034524;28;20092;-64
2022/02/25 03:23:12;;;;;;;11.30;3.70;;;;;;;4.72;71.62;100236.63;5035312;28;20040;-64
2022/02/25 03:25:57;;;;;;;8.98;3.50;;;;;;;4.70;72.25;100252.78;5035643;28;20052;-64
2022/02/25 03:28:41;;;;;;;10.32;3.17;;;;;;;4.73;71.79;100247.78;5034955;28;20119;-64
2022/02/25 03:31:25;;;;;;;14.93;4.72;;;;;;;4.70;71.79;100248.53;5034297;28;20550;-64
2022/02/25 03:34:08;;;;;;;14.82;4.55;;;;;;;4.71;71.93;100246.84;5034355;28;20083;-64
2022/02/25 03:36:52;;;;;;;12.98;3.40;;;;;;;4.72;72.10;100256.31;5035524;28;20044;-65
2022/02/25 03:39:36;;;;;;;33.55;4.65;;;;;;;4.69;71.95;100257.03;5035403;28;20190;-64
2022/02/25 03:42:21;;;;;;;;;;;;;;;4.69;72.11;100267.31;5035868;28;20048;-64
2022/02/25 03:45:07;;;;;;;13.15;4.25;;;;;;;4.69;72.66;100258.75;5035187;28;19927;-64
2022/02/25 03:47:51;;;;;;;17.05;3.60;;;;;;;4.65;71.95;100259.41;5034542;28;20103;-64
2022/02/25 03:50:34;;;;;;;9.65;2.78;;;;;;;4.64;72.31;100262.78;5035196;28;20044;-64
2022/02/25 03:53:21;;;;;;;10.50;3.17;;;;;;;4.65;71.89;100262.88;5034295;28;20563;-65
2022/02/25 03:56:05;;;;;;;7.55;3.95;;;;;;;4.65;71.92;100257.75;5034183;28;20064;-65
2022/02/25 03:58:49;;;;;;;7.05;3.38;;;;;;;4.65;71.80;100256.84;5035327;28;20052;-65
2022/02/25 04:01:33;;;;;;;8.73;3.38;;;;;;;4.67;72.25;100262.94;5034202;28;20052;-64
2022/02/25 04:04:17;;;;;;;9.25;3.30;;;;;;;4.65;72.10;100255.16;5033843;28;20095;-64
2022/02/25 04:07:01;;;;;;;;;;;;;;;4.61;72.19;100266.09;5034614;28;20124;-65
2022/02/25 04:09:45;;;;;;;13.35;3.20;;;;;;;4.65;72.01;100269.69;5034710;28;19935;-64
2022/02/25 04:12:29;;;;;;;11.80;3.63;;;;;;;4.62;72.30;100261.84;5033873;28;20079;-64
2022/02/25 04:15:16;;;;;;;9.65;3.40;;;;;;;4.60;71.74;100253.19;5033756;28;20107;-64
2022/02/25 04:18:03;;;;;;;12.48;4.43;;;;;;;4.59;71.97;100256.59;5034178;28;20052;-64
2022/02/25 04:20:47;;;;;;;9.85;3.90;;;;;;;4.51;72.22;100258.81;5033766;28;20048;-64
2022/02/25 04:23:31;;;;;;;12.32;3.78;;;;;;;4.50;72.07;100263.06;5033644;28;20400;-64
2022/02/25 04:26:15;;;;;;;8.85;3.50;;;;;;;4.53;71.87;100259.75;5033287;28;20056;-64
2022/02/25 04:28:59;;;;;;;12.15;3.20;;;;;;;4.51;71.89;100262.25;5034189;28;20087;-64
2022/02/25 04:31:43;;;;;;;15.05;3.33;;;;;;;4.53;71.78;100267.44;5034212;28;20115;-64
2022/02/25 04:34:27;;;;;;;10.40;3.67;;;;;;;4.49;72.07;100261.31;5033645;28;20083;-64
2022/02/25 04:37:11;;;;;;;8.45;4.05;;;;;;;4.50;71.66;100264.75;5034653;28;20131;-64
2022/02/25 04:39:55;;;;;;;12.80;4.38;;;;;;;4.50;72.15;100264.75;5034619;28;20071;-64
2022/02/25 04:42:40;;;;;;;23.65;5.55;;;;;;;4.47;72.06;100262.91;5033898;28;20091;-65
2022/02/25 04:45:23;;;;;;;11.32;3.85;;;;;;;4.45;72.06;100253.41;5033915;28;20044;-64
2022/02/25 04:48:10;;;;;;;12.43;4.28;;;;;;;4.42;72.01;100267.00;5034203;28;20079;-64
2022/02/25 04:50:54;;;;;;;11.85;3.90;;;;;;;4.43;72.01;100258.50;5032712;28;20095;-64
2022/02/25 04:53:40;;;;;;;11.43;4.20;;;;;;;4.41;72.00;100263.53;5033051;28;20099;-65
2022/02/25 04:56:24;;;;;;;9.02;3.75;;;;;;;4.42;71.95;100254.16;5034048;28;20412;-64
2022/02/25 04:59:08;;;;;;;9.82;3.33;;;;;;;4.40;71.85;100260.91;5033869;28;20531;-65
2022/02/25 05:01:52;;;;;;;14.30;4.00;;;;;;;4.36;72.02;100252.19;5033325;28;20061;-65
2022/02/25 05:04:36;;;;;;;;;;;;;;;4.36;71.68;100256.44;5034162;28;20048;-65
2022/02/25 05:07:25;;;;;;;13.50;4.15;;;;;;;4.34;71.79;100258.06;5033762;28;19920;-65
2022/02/25 05:10:09;;;;;;;10.77;2.97;;;;;;;4.33;71.87;100259.75;5032480;28;20084;-65
2022/02/25 05:12:54;;;;;;;15.30;3.90;;;;;;;4.36;72.04;100256.44;5032490;28;20079;-65
2022/02/25 05:21:43;;;;;;;9.73;4.47;;;;;;;4.27;72.33;100264.59;5033569;28;20099;-64
2022/02/25 05:24:28;;;;;;;13.50;4.63;;;;;;;4.28;71.90;100273.19;5032406;28;20064;-64
2022/02/25 05:27:11;;;;;;;13.88;4.28;;;;;;;4.24;71.88;100267.03;5033854;28;20107;-64
2022/02/25 05:29:55;;;;;;;10.02;4.10;;;;;;;4.23;71.85;100258.47;5032283;28;20171;-64
2022/02/25 05:32:39;;;;;;;12.93;3.50;;;;;;;4.22;71.74;100249.00;5032382;28;20056;-64
2022/02/25 05:35:23;;;;;;;10.15;3.70;;;;;;;4.23;72.36;100257.56;5032793;28;20044;-64
2022/02/25 05:38:10;;;;;;;15.32;5.00;;;;;;;4.24;71.94;100252.53;5033204;28;20052;-65
2022/02/25 05:40:54;;;;;;;5.40;3.03;;;;;;;4.23;71.61;100255.91;5032538;28;20053;-65
2022/02/25 05:43:38;;;;;;;10.00;4.05;;;;;;;4.21;71.69;100246.34;5032273;28;20092;-65
2022/02/25 05:46:22;;;;;;;13.02;3.78;;;;;;;4.19;71.87;100259.13;5032881;28;20056;-65
2022/02/25 05:49:07;;;;;;;10.15;3.65;;;;;;;4.17;71.89;100255.63;5032366;28;20528;-65
2022/02/25 05:51:52;;;;;;;10.88;4.32;;;;;;;4.17;71.94;100271.00;5033541;28;20135;-64
2022/02/25 05:54:38;;;;;;;16.75;4.47;;;;;;;4.17;71.74;100260.75;5034364;28;20087;-64
2022/02/25 05:57:22;;;;;;;14.43;4.57;;;;;;;4.18;71.58;100266.78;5036319;28;20540;-64
2022/02/25 06:00:08;;;;;;;;;;;;;;;4.17;71.65;100272.72;5036942;28;20111;-64
2022/02/25 06:02:52;;;;;;;15.55;4.47;;;;;;;4.18;71.95;100284.72;5035982;28;19971;-64
2022/02/25 06:05:38;;;;;;;;;;;;;;;4.15;71.54;100282.03;5037355;28;20075;-64
2022/02/25 06:08:23;;;;;;;12.20;3.30;;;;;;;4.15;71.92;100282.88;5037467;28;20280;-64
2022/02/25 06:11:07;;;;;;;10.70;4.25;;;;;;;4.17;71.97;100280.41;5037381;28;20397;-64
2022/02/25 06:13:50;;;;;;;15.13;4.30;;;;;;;4.17;71.90;100286.41;5036122;28;20056;-64
2022/02/25 06:16:35;;;;;;;11.07;3.65;;;;;;;4.18;72.24;100288.16;5037196;28;20095;-64
2022/02/25 06:19:19;;;;;;;13.85;4.65;;;;;;;4.16;71.93;100299.16;5037184;28;20083;-64
2022/02/25 06:22:03;;;;;;;19.40;4.97;;;;;;;4.17;71.66;100301.78;5036327;28;20099;-64
2022/02/25 06:24:49;;;;;;;9.48;4.05;;;;;;;4.15;71.85;100303.41;5036599;28;20052;-64
2022/02/25 06:27:35;;;;;;;14.90;3.55;;;;;;;4.17;71.56;100311.19;5036752;28;20450;-65
2022/02/25 06:30:19;;;;;;;11.93;4.05;;;;;;;4.15;71.93;100307.66;5036786;28;20094;-64
2022/02/25 06:33:06;;;;;;;13.65;4.60;;;;;;;4.16;71.69;100317.13;5037003;28;20052;-64
2022/02/25 06:35:50;;;;;;;15.10;4.20;;;;;;;4.14;71.75;100317.03;5036573;28;20048;-65
2022/02/25 06:38:37;;;;;;;19.88;5.53;;;;;;;4.13;71.82;100333.22;5035662;28;20068;-65
2022/02/25 06:41:23;;;;;;;10.35;3.85;;;;;;;4.15;72.21;100326.50;5036594;28;20049;-65
2022/02/25 06:44:07;;;;;;;8.80;3.53;;;;;;;4.16;72.08;100330.81;5034897;28;20101;-65
2022/02/25 06:46:51;;;;;;;;;;;;;;;4.15;71.57;100333.31;5036018;28;20052;-64
2022/02/25 06:49:35;;;;;;;7.25;3.03;;;;;;;4.17;71.53;100341.97;5035877;28;19971;-65
2022/02/25 06:52:24;;;;;;;11.80;4.20;;;;;;;4.17;71.18;100354.81;5034893;28;20057;-65
2022/02/25 06:55:08;;;;;;;11.23;3.80;;;;;;;4.17;71.88;100349.69;5035193;28;20099;-65
2022/02/25 06:57:55;;;;;;;8.02;3.47;;;;;;;4.17;72.02;100350.53;5036395;28;20152;-64
2022/02/25 07:00:39;;;;;;;15.63;4.15;;;;;;;4.19;71.88;100355.75;5035962;28;20088;-64
2022/02/25 07:03:23;;;;;;;11.15;3.33;;;;;;;4.17;72.03;100358.22;5035970;28;20063;-65
2022/02/25 07:06:07;;;;;;;16.45;4.85;;;;;;;4.18;71.88;100357.44;5034997;28;20091;-64
2022/02/25 07:08:51;;;;;;;8.45;4.35;;;;;;;4.16;71.29;100365.88;5035557;28;20048;-64
2022/02/25 07:11:38;;;;;;;9.20;4.30;;;;;;;4.16;72.36;100364.16;5035771;28;20045;-65
2022/02/25 07:14:22;;;;;;;15.40;4.63;;;;;;;4.16;72.02;100366.75;5034858;28;20096;-65
2022/02/25 07:17:06;;;;;;;8.95;3.17;;;;;;;4.16;72.12;100366.75;5035795;28;20045;-65
2022/02/25 07:19:50;;;;;;;12.23;4.38;;;;;;;4.16;72.05;100364.16;5035989;28;20099;-64
2022/02/25 07:22:35;;;;;;;11.05;4.20;;;;;;;4.16;71.84;100363.31;5034962;28;20084;-64
2022/02/25 07:25:20;;;;;;;12.45;3.85;;;;;;;4.15;71.61;100374.38;5034731;28;20075;-65
2022/02/25 07:28:06;;;;;;;9.43;3.95;;;;;;;4.16;71.56;100353.91;5034858;28;20428;-65
2022/02/25 07:30:50;;;;;;;14.43;4.63;;;;;;;4.16;72.02;100360.75;5035491;28;20103;-64
2022/02/25 07:33:34;;;;;;;14.60;3.28;;;;;;;4.16;71.95;100369.31;5035412;28;20543;-65
2022/02/25 07:36:18;;;;;;;10.75;3.90;;;;;;;4.18;72.25;100383.09;5035232;28;20048;-64
2022/02/25 07:39:04;;;;;;;13.70;4.85;;;;;;;4.17;72.00;100368.50;5034361;28;20079;-64
2022/02/25 07:41:48;;;;;;;12.45;4.45;;;;;;;4.18;71.85;100377.09;5034058;28;20119;-65
2022/02/25 07:44:32;;;;;;;10.55;4.72;;;;;;;4.19;72.26;100376.28;5035675;28;20144;-64
2022/02/25 07:47:17;;;;;;;15.32;5.35;;;;;;;4.20;71.95;100378.91;5035386;28;20055;-65
2022/02/25 07:50:01;;;;;;;18.00;4.88;;;;;;;4.19;72.00;100377.16;5034155;28;20059;-64
2022/02/25 07:52:47;;;;;;;;;;;;;;;4.20;71.73;100398.56;5034845;28;20064;-64
2022/02/25 07:55:31;;;;;;;12.23;4.25;;;;;;;4.21;72.35;100402.88;5033607;28;20416;-64
2022/02/25 07:58:18;;;;;;;13.93;4.57;;;;;;;4.22;72.14;100409.75;5034933;28;20075;-64
2022/02/25 08:01:02;;;;;;;11.35;3.83;;;;;;;4.22;72.38;100417.47;5035718;28;20103;-64
2022/02/25 08:03:46;;;;;;;11.43;4.05;;;;;;;4.22;71.80;100425.16;5034921;28;20048;-65
2022/02/25 08:06:32;;;;;;;13.20;4.13;;;;;;;4.22;72.46;100423.47;5033738;28;20056;-64
2022/02/25 08:09:18;;;;;;;15.35;5.35;;;;;;;4.22;72.18;100431.19;5034093;28;20052;-64
2022/02/25 08:12:03;;;;;;;14.23;3.50;;;;;;;4.22;72.36;100433.75;5034837;28;20047;-64
2022/02/25 08:14:47;;;;;;;13.82;4.70;;;;;;;4.23;72.53;100429.47;5034929;28;20102;-64
2022/02/25 08:17:31;;;;;;;16.48;5.47;;;;;;;4.23;72.48;100422.69;5034685;28;20056;-64
2022/02/25 08:20:16;;;;;;;12.43;4.82;;;;;;;4.23;72.55;100438.06;5034448;28;20206;-64
2022/02/25 08:23:01;;;;;;;12.32;4.90;;;;;;;4.23;72.74;100440.66;5033348;28;20079;-64
2022/02/25 08:25:46;;;;;;;11.27;4.53;;;;;;;4.23;72.52;100445.78;5033691;28;20542;-64
2022/02/25 08:28:30;;;;;;;10.13;3.53;;;;;;;4.23;72.30;100445.78;5033116;28;20107;-64
2022/02/25 08:31:14;;;;;;;12.00;3.90;;;;;;;4.26;71.92;100458.75;5033670;28;20056;-64
2022/02/25 08:33:58;;;;;;;11.98;4.43;;;;;;;4.29;72.73;100462.25;5034205;28;20057;-64
2022/02/25 08:36:41;;;;;;;11.48;3.92;;;;;;;4.30;72.25;100464.00;5034181;28;20159;-65
2022/02/25 08:39:27;;;;;;;14.27;4.38;;;;;;;4.31;72.62;100473.47;5034065;28;20056;-65
2022/02/25 08:42:12;;;;;;;9.60;3.83;;;;;;;4.33;72.59;100467.63;5033828;28;20095;-65
2022/02/25 08:44:56;;;;;;;;;;;;;;;4.35;72.29;100472.81;5033617;28;20543;-64
2022/02/25 08:47:42;;;;;;;11.48;4.03;;;;;;;4.34;72.93;100476.19;5033919;28;20340;-64
2022/02/25 08:50:26;;;;;;;19.02;4.68;;;;;;;4.35;72.47;100480.53;5033549;28;20053;-65
2022/02/25 08:53:10;;;;;;;;;;;;;;;4.34;72.42;100484.78;5033630;28;20135;-64
2022/02/25 08:55:54;;;;;;;13.02;4.05;;;;;;;4.35;73.04;100478.84;5033286;28;19936;-64
2022/02/25 08:58:38;;;;;;;11.93;4.97;;;;;;;4.35;72.94;100477.97;5033280;28;20106;-65
2022/02/25 09:01:23;;;;;;;16.73;4.35;;;;;;;4.36;72.63;100495.97;5032898;28;20052;-64
2022/02/25 09:04:07;;;;;;;15.98;4.88;;;;;;;4.36;72.78;100508.81;5006940;28;20081;-64
2022/02/25 09:06:51;;;;;;;11.10;3.35;;;;;;;4.38;73.21;100508.91;4994478;28;20097;-65
2022/02/25 09:09:35;;;;;;;14.20;4.75;;;;;;;4.38;72.65;100501.22;4994481;28;20100;-67
2022/02/25 09:12:19;;;;;;;17.38;5.70;;;;;;;4.45;72.70;100507.50;4993903;28;20140;-66
2022/02/25 09:15:07;;;;;;;54.63;7.85;;;;;;;4.52;72.71;100505.31;4994603;28;20525;-65
2022/02/25 09:17:53;;;;;;;39.92;7.75;;;;;;;4.50;72.65;100504.34;4994162;28;20545;-65
2022/02/25 09:20:38;;;;;;;42.72;7.13;;;;;;;4.50;72.62;100501.78;4993223;28;20100;-63
2022/02/25 09:23:22;;;;;;;43.35;7.05;;;;;;;4.49;72.72;100519.69;4993935;28;20049;-64
2022/02/25 09:26:07;;;;;;;33.83;8.10;;;;;;;4.48;73.09;100516.22;4994553;28;20107;-63
2022/02/25 09:28:51;;;;;;;19.85;5.53;;;;;;;4.46;72.96;100512.72;4993980;28;20081;-64
2022/02/25 09:31:34;;;;;;;21.38;4.63;;;;;;;4.48;72.52;100517.94;4994964;28;20081;-63
2022/02/25 09:34:23;;;;;;;27.95;4.93;;;;;;;4.48;72.49;100517.94;4994456;28;20057;-64
2022/02/25 09:37:10;;;;;;;13.25;4.28;;;;;;;4.48;73.15;100523.06;4994270;28;20061;-64
2022/02/25 09:39:54;;;;;;;21.20;5.45;;;;;;;4.49;72.93;100529.97;4993571;28;20093;-63
2022/02/25 09:42:40;;;;;;;15.43;5.75;;;;;;;4.48;73.08;100533.34;4993727;28;20040;-64
2022/02/25 09:45:24;;;;;;;25.42;5.15;;;;;;;4.51;72.58;100538.63;4993405;28;20464;-64
2022/02/25 09:48:10;;;;;;;20.67;5.13;;;;;;;4.50;72.83;100536.88;4994256;28;20466;-63
2022/02/25 09:50:55;;;;;;;13.25;3.67;;;;;;;4.50;72.50;100550.56;4994124;28;20140;-64
2022/02/25 09:53:39;;;;;;;17.90;4.60;;;;;;;4.51;72.55;100554.03;4993276;28;20068;-64
2022/02/25 09:56:25;;;;;;;;;;;;;;;4.51;72.79;100560.03;4994108;28;20050;-64
2022/02/25 09:59:09;;;;;;;;;;;;;;;4.50;72.97;100568.53;4993375;28;19919;-63
2022/02/25 10:01:54;;;;;;;;;;;;;;;4.50;73.00;100565.97;5002123;28;19924;-63
2022/02/25 10:04:38;;;;;;;;;;;;;;;4.52;73.29;100578.88;5033548;28;20421;-65
2022/02/25 10:07:23;;;;;;;;;;;;;;;4.51;73.48;100583.13;5033856;28;19940;-64
2022/02/25 10:10:08;;;;;;;;;;;;;;;4.50;73.42;100586.50;5033129;28;20028;-63
2022/02/25 10:12:57;;;;;;;;;;;;;;;4.52;73.67;100582.31;5032494;28;20013;-64
2022/02/25 10:15:42;;;;;;;;;;;;;;;4.53;73.28;100590.91;5033167;28;19924;-63
2022/02/25 10:18:30;;;;;;;;;;;;;;;4.53;73.44;100589.22;5033465;28;20012;-64
2022/02/25 10:21:16;;;;;;;;;;;;;;;4.55;72.56;100586.72;5032880;28;19963;-63
2022/02/25 10:24:06;;;;;;;;;;;;;;;4.57;73.69;100603.97;5033243;28;20395;-64
2022/02/25 10:26:49;;;;;;;;;;;;;;;4.57;73.05;100600.53;5032720;28;19939;-64
2022/02/25 10:29:33;;;;;;;;;;;;;;;4.57;72.99;100598.84;5033075;28;19967;-63
2022/02/25 10:32:36;;;;;;;;;;;;;;;4.55;73.93;100608.16;5033451;28;20387;-64
2022/02/25 10:35:25;;;;;;;;;;;;;;;4.59;73.45;100606.63;5033284;28;19971;-64
2022/02/25 10:38:11;;;;;;;;;;;;;;;4.60;72.89;100610.03;5033627;28;19924;-63
2022/02/25 10:40:55;;;;;;;;;;;;;;;4.62;73.42;100621.28;5033197;28;19971;-63
2022/02/25 10:43:45;;;;;;;;;;;;;;;4.63;73.07;100620.47;5036954;28;20052;-63
2022/02/25 10:46:29;;;;;;;;;;;;;;;4.63;73.42;100620.47;5036943;28;20288;-63
2022/02/25 10:49:14;;;;;;;;;;;;;;;4.63;73.34;100621.38;5036556;28;19924;-63
2022/02/25 10:51:58;;;;;;;;;;;;;;;4.64;73.63;100622.25;5036579;28;19924;-64
2022/02/25 10:54:43;;;;;;;;;;;;;;;4.64;73.58;100624.81;5036034;28;20016;-63
2022/02/25 10:57:28;;;;;;;;;;;;;;;4.68;73.62;100631.88;5035477;28;19967;-64
2022/02/25 11:00:14;;;;;;;;;;;;;;;4.69;73.52;100625.94;5036137;28;19963;-63
2022/02/25 11:03:01;;;;;;;;;;;;;;;4.70;73.80;100630.25;5035168;28;19924;-63
2022/02/25 11:05:48;;;;;;;;;;;;;;;4.73;73.62;100632.97;5035913;28;19923;-64
2022/02/25 11:08:32;;;;;;;;;;;;;;;4.74;73.86;100632.19;5035595;28;19962;-64
2022/02/25 11:11:17;;;;;;;;;;;;;;;4.76;73.21;100635.66;5036264;28;19929;-64
2022/02/25 11:14:03;;;;;;;;;;;;;;;4.77;73.45;100634.88;5035935;28;19927;-64
2022/02/25 11:16:48;;;;;;;;;;;;;;;4.78;74.00;100644.34;5035392;28;20295;-64
2022/02/25 11:19:34;;;;;;;;;;;;;;;4.80;73.65;100647.88;5036267;28;20016;-63
2022/02/25 11:22:21;;;;;;;;;;;;;;;4.80;73.85;100653.00;5035418;28;19924;-64
2022/02/25 11:25:14;;;;;;;;;;;;;;;4.80;73.98;100660.72;5035861;28;20013;-64
2022/02/25 11:27:59;;;;;;;;;;;;;;;4.82;73.53;100647.97;5035110;28;20019;-64
2022/02/25 11:30:47;;;;;;;;;;;;;;;4.82;73.21;100651.41;5036042;28;20007;-64
2022/02/25 11:33:32;;;;;;;;;;;;;;;4.82;73.78;100661.66;5035548;28;19924;-64
2022/02/25 11:36:19;;;;;;;;;;;;;;;4.83;73.16;100655.72;5036203;28;19944;-63
2022/02/25 11:39:17;;;;;;;;;;;;;;;4.83;73.70;100654.84;5034743;28;19974;-64
2022/02/25 11:42:03;;;;;;;;;;;;;;;4.84;73.32;100654.03;5035432;28;19924;-63
2022/02/25 11:45:02;;;;;;;;;;;;;;;4.83;73.60;100660.88;5035393;28;20422;-63
2022/02/25 11:47:50;;;;;;;;;;;;;;;4.84;73.54;100657.50;5035971;28;19970;-63
2022/02/25 11:50:36;;;;;;;;;;;;;;;4.86;73.82;100660.13;5034676;28;20012;-64
2022/02/25 11:53:24;;;;;;;;;;;;;;;4.88;73.34;100656.84;5034117;28;20016;-64
2022/02/25 11:56:20;;;;;;;;;;;;;;;4.92;73.37;100649.25;5035425;28;19971;-64
2022/02/25 11:59:03;;;;;;;;;;;;;;;4.96;73.39;100656.31;5035054;28;20372;-63
2022/02/25 12:02:10;;;;;;;;;;;;;;;4.98;73.80;100647.00;5035624;28;20074;-63
2022/02/25 12:04:54;;;;;;;;;;;;;;;4.98;72.88;100647.88;5034574;28;19924;-63
2022/02/25 12:07:45;;;;;;;;;;;;;;;4.99;73.77;100636.78;5035740;28;19931;-64
2022/02/25 12:10:34;;;;;;;;;;;;;;;4.99;74.07;100643.63;5035062;28;19924;-64
2022/02/25 12:13:25;;;;;;;;;;;;;;;4.98;73.75;100632.47;5034538;28;19924;-64
2022/02/25 12:16:29;;;;;;;;;;;;;;;5.00;73.42;100629.97;5035195;28;19926;-64
2022/02/25 12:19:20;;;;;;;;;;;;;;;5.00;73.68;100642.81;5033872;28;19943;-63
2022/02/25 12:22:17;;;;;;;;;;;;;;;4.99;73.37;100643.63;5034048;28;19978;-64
2022/02/25 12:25:10;;;;;;;;;;;;;;;5.00;73.38;100645.41;5034861;28;20422;-64
2022/02/25 12:27:54;;;;;;;;;;;;;;;4.99;73.07;100646.19;5034224;28;19979;-64
2022/02/25 12:30:38;;;;;;;;;;;;;;;4.98;73.05;100647.88;5034008;28;20331;-64
2022/02/25 12:33:29;;;;;;;;;;;;;;;4.98;73.22;100658.16;5034198;28;19924;-64
2022/02/25 12:36:15;;;;;;;;;;;;;;;4.96;73.41;100664.03;5035038;28;19926;-64
2022/02/25 12:39:00;;;;;;;;;;;;;;;4.93;73.89;100669.00;5034232;28;20384;-64
2022/02/25 12:41:49;;;;;;;;;;;;;;;4.92;73.77;100660.44;5033771;28;19969;-64
2022/02/25 12:44:34;;;;;;;;;;;;;;;4.88;73.87;100661.09;5033830;28;19947;-64
2022/02/25 12:47:18;;;;;;;;;;;;;;;4.88;73.86;100672.25;5033529;28;19970;-64
2022/02/25 12:50:04;;;;;;;;;;;;;;;4.91;73.94;100679.22;5034337;28;19924;-64
2022/02/25 12:52:48;;;;;;;;;;;;;;;4.88;74.42;100695.38;5033732;28;20371;-64
2022/02/25 12:55:31;;;;;;;;;;;;;;;4.91;73.53;100693.75;5033294;28;20456;-64
2022/02/25 12:58:18;;;;;;;;;;;;;;;4.87;74.53;100703.88;5034215;28;20400;-64
2022/02/25 13:01:03;;;;;;;;;;;;;;;4.88;73.62;100704.75;5033899;28;19947;-64
2022/02/25 13:04:05;;;;;;;;;;;;;;;4.91;74.55;100717.75;5032705;28;19967;-64
2022/02/25 13:06:50;;;;;;;;;;;;;;;4.92;73.89;100709.25;5033348;28;19963;-63
2022/02/25 13:09:36;;;;;;;;;;;;;;;4.93;74.47;100707.53;5033161;28;20402;-63
2022/02/25 13:12:21;;;;;;;;;;;;;;;4.91;74.66;100714.28;5033921;28;19927;-63
2022/02/25 13:15:05;;;;;;;;;;;;;;;4.93;74.24;100702.41;5033894;28;19939;-64
2022/02/25 13:17:49;;;;;;;;;;;;;;;4.97;73.83;100699.19;5034103;28;19975;-64
2022/02/25 13:20:33;;;;;;;;;;;;;;;5.01;73.69;100701.13;5033183;28;19943;-63
2022/02/25 13:23:17;;;;;;;;;;;;;;;5.03;73.75;100697.81;5033628;28;19992;-64
2022/02/25 13:26:03;;;;;;;;;;;;;;;5.06;73.74;100704.75;5034652;28;19975;-64
2022/02/25 13:28:47;;;;;;;;;;;;;;;5.11;73.73;100698.19;5033947;28;20331;-63